createdAt,value
2018-03-15T00:00:12.816Z,17.13
2018-03-15T00:02:40.297Z,15.80
2018-03-15T00:05:07.737Z,17.63
2018-03-15T00:07:35.352Z,17.87
2018-03-15T00:10:02.797Z,17.63
2018-03-15T00:12:30.241Z,18.23
2018-03-15T00:14:57.700Z,13.50
2018-03-15T00:17:25.137Z,19.90
2018-03-15T00:19:52.621Z,17.23
2018-03-15T00:22:20.065Z,17.07
2018-03-15T00:24:47.505Z,28.80
2018-03-15T00:27:15.063Z,13.77
2018-03-15T00:29:42.516Z,15.47
2018-03-15T00:32:10.280Z,16.93
2018-03-15T00:34:37.729Z,16.20
2018-03-15T00:37:05.169Z,21.07
2018-03-15T00:39:32.637Z,22.23
2018-03-15T00:42:00.093Z,13.57
2018-03-15T00:44:27.794Z,19.97
2018-03-15T00:46:55.254Z,19.50
2018-03-15T00:49:22.714Z,13.90
2018-03-15T00:51:50.174Z,19.93
2018-03-15T00:54:17.621Z,18.13
2018-03-15T00:56:45.099Z,15.70
2018-03-15T00:59:12.565Z,15.97
2018-03-15T01:01:40.005Z,18.50
2018-03-15T01:04:07.481Z,15.20
2018-03-15T01:06:34.937Z,15.93
2018-03-15T01:09:02.448Z,15.97
2018-03-15T01:11:29.901Z,20.50
2018-03-15T01:13:57.373Z,22.93
2018-03-15T01:16:24.855Z,17.37
2018-03-15T01:18:52.301Z,15.23
2018-03-15T01:21:19.941Z,16.60
2018-03-15T01:23:47.385Z,17.43
2018-03-15T01:26:14.845Z,18.90
2018-03-15T01:28:42.329Z,15.70
2018-03-15T01:31:09.777Z,16.40
2018-03-15T01:33:37.397Z,19.23
2018-03-15T01:36:04.841Z,17.97
2018-03-15T01:38:32.285Z,14.70
2018-03-15T01:40:59.749Z,20.13
2018-03-15T01:43:27.209Z,16.53
2018-03-15T01:45:54.696Z,16.13
2018-03-15T01:48:22.177Z,20.83
2018-03-15T01:50:49.621Z,22.47
2018-03-15T01:53:17.081Z,18.27
2018-03-15T01:55:44.521Z,16.93
2018-03-15T01:58:12.253Z,19.70
2018-03-15T02:00:39.714Z,18.67
2018-03-15T02:03:07.164Z,25.30
2018-03-15T02:05:34.629Z,24.93
2018-03-15T02:08:02.085Z,20.47
2018-03-15T02:10:29.776Z,17.63
2018-03-15T02:12:57.230Z,22.93
2018-03-15T02:15:24.691Z,20.47
2018-03-15T02:17:52.176Z,15.53
2018-03-15T02:20:19.629Z,26.27
2018-03-15T02:22:47.117Z,15.30
2018-03-15T02:25:14.573Z,19.60
2018-03-15T02:27:42.017Z,16.90
2018-03-15T02:30:09.487Z,22.73
2018-03-15T02:32:36.944Z,16.57
2018-03-15T02:35:04.655Z,21.63
2018-03-15T02:37:32.094Z,20.63
2018-03-15T02:39:59.566Z,18.07
2018-03-15T02:42:27.037Z,21.83
2018-03-15T02:44:54.481Z,15.47
2018-03-15T02:47:22.233Z,16.93
2018-03-15T02:49:49.682Z,15.47
2018-03-15T02:52:17.136Z,20.97
2018-03-15T02:54:44.618Z,22.13
2018-03-15T02:57:12.061Z,17.80
2018-03-15T02:59:39.533Z,20.20
2018-03-15T03:02:06.979Z,18.10
2018-03-15T03:04:34.422Z,19.23
2018-03-15T03:07:01.897Z,19.40
2018-03-15T03:09:29.357Z,15.43
2018-03-15T03:11:56.817Z,15.67
2018-03-15T03:14:24.257Z,17.37
2018-03-15T03:16:51.697Z,18.07
2018-03-15T03:19:19.169Z,18.97
2018-03-15T03:21:46.617Z,14.53
2018-03-15T03:24:14.283Z,17.33
2018-03-15T03:26:41.706Z,20.03
2018-03-15T03:29:09.149Z,19.20
2018-03-15T03:31:36.643Z,17.23
2018-03-15T03:34:04.092Z,17.27
2018-03-15T03:36:31.669Z,20.23
2018-03-15T03:38:59.128Z,18.57
2018-03-15T03:41:26.564Z,18.73
2018-03-15T03:43:54.029Z,20.50
2018-03-15T03:46:21.499Z,23.40
2018-03-15T03:48:49.001Z,19.23
2018-03-15T03:51:16.440Z,23.27
2018-03-15T03:53:43.884Z,19.13
2018-03-15T03:56:11.361Z,21.93
2018-03-15T03:58:38.801Z,18.97
2018-03-15T04:01:06.385Z,20.80
2018-03-15T04:03:33.833Z,24.33
2018-03-15T04:06:01.273Z,24.23
2018-03-15T04:08:28.770Z,26.40
2018-03-15T04:10:56.215Z,22.43
2018-03-15T04:13:23.707Z,26.17
2018-03-15T04:15:51.157Z,27.03
2018-03-15T04:18:18.605Z,27.20
2018-03-15T04:20:46.073Z,28.17
2018-03-15T04:23:13.518Z,24.37
2018-03-15T04:25:40.985Z,23.47
2018-03-15T04:28:08.425Z,23.80
2018-03-15T04:30:35.877Z,26.27
2018-03-15T04:33:03.340Z,25.60
2018-03-15T04:35:30.782Z,25.33
2018-03-15T04:37:58.253Z,24.37
2018-03-15T04:40:25.754Z,29.27
2018-03-15T04:42:53.197Z,28.90
2018-03-15T04:45:20.658Z,26.70
2018-03-15T04:47:48.101Z,24.70
2018-03-15T04:50:15.673Z,23.50
2018-03-15T04:52:43.117Z,21.63
2018-03-15T04:55:10.585Z,26.03
2018-03-15T04:57:38.053Z,24.73
2018-03-15T05:00:05.499Z,32.17
2018-03-15T05:02:33.137Z,27.70
2018-03-15T05:05:00.585Z,29.77
2018-03-15T05:07:28.057Z,39.30
2018-03-15T05:09:55.537Z,25.30
2018-03-15T05:12:22.984Z,30.73
2018-03-15T05:14:50.801Z,30.23
2018-03-15T05:17:18.241Z,30.00
2018-03-15T05:19:45.706Z,33.53
2018-03-15T05:22:13.174Z,30.03
2018-03-15T05:24:40.638Z,30.80
2018-03-15T05:27:08.113Z,26.93
2018-03-15T05:29:35.561Z,30.73
2018-03-15T05:32:03.030Z,30.43
2018-03-15T05:34:30.493Z,27.13
2018-03-15T05:36:57.937Z,32.43
2018-03-15T05:39:25.577Z,34.97
2018-03-15T05:41:53.021Z,24.53
2018-03-15T05:44:20.464Z,33.90
2018-03-15T05:46:47.949Z,28.80
2018-03-15T05:49:15.398Z,31.43
2018-03-15T05:51:43.091Z,28.97
2018-03-15T05:54:10.529Z,25.30
2018-03-15T05:56:37.970Z,25.50
2018-03-15T05:59:05.433Z,33.27
2018-03-15T06:01:32.882Z,31.10
2018-03-15T06:04:00.790Z,26.97
2018-03-15T06:06:28.229Z,23.03
2018-03-15T06:08:55.678Z,25.10
2018-03-15T06:11:23.157Z,26.03
2018-03-15T06:13:50.599Z,25.07
2018-03-15T06:16:18.441Z,34.43
2018-03-15T06:18:45.882Z,27.90
2018-03-15T06:21:13.331Z,26.80
2018-03-15T06:23:40.797Z,34.93
2018-03-15T06:26:08.270Z,32.33
2018-03-15T06:28:35.828Z,30.77
2018-03-15T06:31:03.266Z,30.50
2018-03-15T06:33:30.760Z,31.77
2018-03-15T06:35:58.225Z,27.30
2018-03-15T06:38:25.669Z,31.33
2018-03-15T06:40:53.149Z,27.67
2018-03-15T06:43:20.594Z,26.67
2018-03-15T06:45:48.092Z,27.77
2018-03-15T06:48:15.874Z,30.13
2018-03-15T06:50:43.317Z,32.40
2018-03-15T06:53:11.001Z,23.63
2018-03-15T06:55:38.445Z,30.40
2018-03-15T06:58:05.891Z,30.17
2018-03-15T07:00:33.353Z,27.77
2018-03-15T07:03:00.821Z,30.13
2018-03-15T07:05:28.306Z,23.10
2018-03-15T07:07:55.749Z,27.80
2018-03-15T07:10:23.204Z,28.93
2018-03-15T07:12:50.686Z,29.77
2018-03-15T07:15:18.133Z,27.70
2018-03-15T07:17:45.702Z,23.13
2018-03-15T07:20:13.168Z,29.33
2018-03-15T07:22:40.631Z,25.80
2018-03-15T07:25:08.093Z,22.80
2018-03-15T07:27:35.573Z,30.50
2018-03-15T07:30:03.042Z,26.33
2018-03-15T07:32:30.497Z,27.13
2018-03-15T07:34:57.957Z,23.00
2018-03-15T07:37:25.441Z,23.50
2018-03-15T07:39:52.881Z,25.77
2018-03-15T07:42:20.459Z,21.53
2018-03-15T07:44:47.911Z,21.50
2018-03-15T07:47:15.369Z,20.53
2018-03-15T07:49:42.849Z,24.73
2018-03-15T07:52:10.329Z,26.67
2018-03-15T07:54:38.145Z,26.63
2018-03-15T07:57:05.610Z,28.57
2018-03-15T07:59:33.061Z,20.93
2018-03-15T08:02:00.576Z,26.97
2018-03-15T08:04:28.013Z,29.43
2018-03-15T08:06:55.490Z,24.23
2018-03-15T08:09:22.940Z,29.57
2018-03-15T08:11:50.392Z,25.90
2018-03-15T08:14:17.865Z,24.63
2018-03-15T08:16:45.310Z,27.83
2018-03-15T08:19:12.953Z,23.23
2018-03-15T08:21:40.394Z,27.40
2018-03-15T08:24:07.837Z,26.10
2018-03-15T08:26:35.297Z,22.80
2018-03-15T08:29:02.753Z,22.30
2018-03-15T08:31:30.587Z,20.23
2018-03-15T08:33:58.040Z,25.10
2018-03-15T08:36:25.481Z,21.13
2018-03-15T08:38:52.997Z,19.70
2018-03-15T08:41:20.411Z,23.93
2018-03-15T08:43:47.924Z,25.13
2018-03-15T08:46:15.395Z,24.20
2018-03-15T08:48:42.838Z,19.97
2018-03-15T08:51:10.305Z,20.43
2018-03-15T08:53:37.784Z,22.40
2018-03-15T08:56:05.249Z,19.77
2018-03-15T08:58:32.697Z,24.60
2018-03-15T09:01:00.153Z,23.23
2018-03-15T09:03:27.625Z,21.13
2018-03-15T09:05:55.133Z,21.83
2018-03-15T09:08:22.750Z,18.70
2018-03-15T09:10:50.202Z,22.63
2018-03-15T09:13:17.665Z,23.83
2018-03-15T09:15:45.137Z,20.90
2018-03-15T09:18:12.582Z,21.23
2018-03-15T09:20:40.056Z,15.50
2018-03-15T09:23:07.532Z,16.90
2018-03-15T09:25:34.969Z,23.03
2018-03-15T09:28:02.429Z,20.33
2018-03-15T09:30:29.865Z,16.87
2018-03-15T09:32:57.377Z,22.47
2018-03-15T09:35:24.859Z,19.67
2018-03-15T09:37:52.339Z,20.17
2018-03-15T09:40:19.830Z,21.27
2018-03-15T09:42:47.288Z,19.83
2018-03-15T09:45:15.014Z,23.77
2018-03-15T09:47:42.481Z,22.17
2018-03-15T09:50:09.957Z,16.10
2018-03-15T09:52:37.441Z,14.53
2018-03-15T09:55:04.909Z,15.27
2018-03-15T09:57:32.406Z,21.57
2018-03-15T09:59:59.870Z,17.00
2018-03-15T10:02:27.338Z,17.20
2018-03-15T10:04:54.821Z,20.30
2018-03-15T10:07:22.286Z,16.77
2018-03-15T10:09:49.777Z,17.90
2018-03-15T10:12:17.242Z,17.10
2018-03-15T10:14:44.705Z,14.83
2018-03-15T10:17:12.190Z,14.13
2018-03-15T10:19:39.663Z,20.47
2018-03-15T10:22:07.145Z,12.37
2018-03-15T10:24:34.623Z,17.93
2018-03-15T10:27:02.111Z,16.03
2018-03-15T10:29:29.596Z,18.33
2018-03-15T10:31:57.084Z,17.43
2018-03-15T10:34:24.597Z,16.13
2018-03-15T10:36:52.065Z,19.30
2018-03-15T10:39:24.413Z,16.00
2018-03-15T10:41:51.921Z,14.83
2018-03-15T10:44:19.401Z,15.67
2018-03-15T10:46:46.880Z,13.40
2018-03-15T10:49:14.345Z,13.93
2018-03-15T10:51:41.849Z,14.47
2018-03-15T10:54:09.321Z,15.33
2018-03-15T10:56:36.802Z,15.10
2018-03-15T10:59:04.290Z,14.00
2018-03-15T11:01:37.361Z,14.03
2018-03-15T11:04:10.379Z,19.03
2018-03-15T11:09:44.494Z,17.40
2018-03-15T11:12:11.947Z,17.00
2018-03-15T11:14:39.654Z,13.30
2018-03-15T11:17:07.134Z,21.10
2018-03-15T11:19:34.595Z,12.20
2018-03-15T11:22:02.145Z,14.30
2018-03-15T11:24:29.618Z,13.80
2018-03-15T11:27:00.301Z,17.17
2018-03-15T11:29:27.765Z,14.10
2018-03-15T11:31:55.233Z,14.63
2018-03-15T11:34:22.713Z,16.63
2018-03-15T11:36:50.174Z,15.27
2018-03-15T11:39:17.793Z,14.93
2018-03-15T11:41:45.249Z,14.00
2018-03-15T11:44:12.733Z,23.20
2018-03-15T11:46:40.209Z,16.27
2018-03-15T11:49:07.665Z,18.93
2018-03-15T11:51:35.390Z,13.90
2018-03-15T11:54:02.846Z,12.10
2018-03-15T11:56:30.311Z,12.17
2018-03-15T11:58:57.817Z,17.83
2018-03-15T12:01:25.273Z,11.07
2018-03-15T12:03:52.785Z,16.43
2018-03-15T12:06:20.241Z,15.33
2018-03-15T12:08:47.710Z,14.70
2018-03-15T12:11:15.185Z,10.53
2018-03-15T12:13:42.646Z,16.13
2018-03-15T12:16:10.138Z,12.20
2018-03-15T12:18:37.585Z,11.90
2018-03-15T12:21:05.058Z,11.33
2018-03-15T12:23:32.546Z,11.70
2018-03-15T12:25:59.993Z,13.87
2018-03-15T12:28:27.604Z,10.73
2018-03-15T12:30:55.066Z,11.27
2018-03-15T12:33:22.511Z,11.03
2018-03-15T12:35:49.980Z,12.47
2018-03-15T12:38:17.453Z,13.57
2018-03-15T12:40:45.046Z,10.80
2018-03-15T12:43:12.521Z,10.57
2018-03-15T12:45:39.974Z,11.07
2018-03-15T12:48:07.441Z,9.67
2018-03-15T12:50:34.889Z,11.30
2018-03-15T12:53:02.610Z,15.23
2018-03-15T12:55:30.059Z,10.53
2018-03-15T12:57:57.506Z,12.27
2018-03-15T13:00:24.974Z,10.37
2018-03-15T13:02:52.449Z,10.60
2018-03-15T13:05:19.909Z,8.97
2018-03-15T13:07:47.350Z,9.87
2018-03-15T13:10:14.797Z,9.40
2018-03-15T13:12:42.271Z,11.50
2018-03-15T13:15:09.709Z,12.10
2018-03-15T13:17:37.169Z,9.43
2018-03-15T13:20:04.657Z,10.20
2018-03-15T13:22:32.096Z,9.83
2018-03-15T13:24:59.565Z,10.20
2018-03-15T13:27:27.006Z,9.10
2018-03-15T13:29:54.637Z,9.93
2018-03-15T13:32:22.074Z,9.83
2018-03-15T13:34:49.554Z,11.03
2018-03-15T13:37:17.029Z,10.07
2018-03-15T13:39:44.473Z,10.53
2018-03-15T13:42:12.093Z,11.40
2018-03-15T13:44:39.554Z,12.30
2018-03-15T13:47:06.999Z,10.63
2018-03-15T13:49:34.477Z,10.10
2018-03-15T13:52:01.982Z,9.40
2018-03-15T13:54:29.434Z,11.00
2018-03-15T13:56:56.885Z,9.57
2018-03-15T13:59:24.333Z,13.47
2018-03-15T14:01:51.805Z,9.00
2018-03-15T14:04:19.242Z,8.80
2018-03-15T14:06:46.717Z,8.37
2018-03-15T14:09:14.203Z,10.33
2018-03-15T14:11:41.661Z,10.40
2018-03-15T14:14:09.153Z,10.97
2018-03-15T14:16:36.606Z,9.37
2018-03-15T14:19:04.466Z,8.50
2018-03-15T14:21:31.933Z,9.77
2018-03-15T14:23:59.382Z,10.37
2018-03-15T14:26:26.857Z,12.00
2018-03-15T14:28:54.302Z,9.23
2018-03-15T14:31:21.901Z,10.63
2018-03-15T14:33:49.348Z,8.40
2018-03-15T14:36:16.794Z,10.70
2018-03-15T14:38:44.317Z,7.90
2018-03-15T14:41:11.729Z,9.70
2018-03-15T14:43:39.457Z,9.10
2018-03-15T14:46:06.902Z,8.53
2018-03-15T14:48:34.339Z,9.07
2018-03-15T14:51:01.817Z,9.70
2018-03-15T14:53:29.295Z,10.30
2018-03-15T14:55:56.789Z,14.63
2018-03-15T14:58:24.243Z,11.83
2018-03-15T15:00:51.705Z,10.53
2018-03-15T15:03:19.169Z,10.00
2018-03-15T15:05:46.606Z,9.43
2018-03-15T15:08:14.090Z,8.63
2018-03-15T15:10:41.560Z,8.90
2018-03-15T15:13:09.009Z,8.17
2018-03-15T15:15:36.485Z,8.80
2018-03-15T15:18:03.934Z,10.07
2018-03-15T15:20:31.599Z,8.10
2018-03-15T15:22:59.115Z,9.00
2018-03-15T15:25:26.569Z,9.00
2018-03-15T15:27:54.035Z,9.63
2018-03-15T15:30:21.489Z,8.23
2018-03-15T15:32:49.161Z,9.10
2018-03-15T15:35:16.636Z,10.07
2018-03-15T15:37:44.094Z,7.83
2018-03-15T15:40:11.560Z,11.77
2018-03-15T15:42:39.001Z,9.60
2018-03-15T15:45:06.726Z,8.90
2018-03-15T15:47:34.169Z,7.77
2018-03-15T15:50:01.613Z,8.87
2018-03-15T15:52:29.089Z,8.27
2018-03-15T15:54:56.537Z,8.40
2018-03-15T15:57:24.001Z,8.70
2018-03-15T15:59:51.444Z,9.73
2018-03-15T16:02:18.881Z,9.03
2018-03-15T16:04:46.342Z,7.87
2018-03-15T16:07:13.785Z,8.40
2018-03-15T16:09:41.286Z,7.93
2018-03-15T16:12:08.736Z,10.60
2018-03-15T16:14:36.189Z,7.37
2018-03-15T16:17:03.650Z,6.63
2018-03-15T16:19:31.129Z,7.40
2018-03-15T16:21:58.619Z,7.83
2018-03-15T16:24:26.077Z,7.60
2018-03-15T16:26:53.597Z,10.03
2018-03-15T16:29:21.042Z,12.13
2018-03-15T16:31:48.482Z,7.73
2018-03-15T16:34:15.982Z,6.73
2018-03-15T16:36:43.446Z,7.77
2018-03-15T16:39:10.943Z,7.20
2018-03-15T16:41:38.409Z,9.47
2018-03-15T16:44:05.853Z,7.57
2018-03-15T16:46:33.332Z,6.27
2018-03-15T16:49:00.771Z,7.10
2018-03-15T16:51:28.236Z,8.07
2018-03-15T16:53:55.713Z,7.00
2018-03-15T16:56:23.165Z,8.13
2018-03-15T16:58:50.877Z,5.87
2018-03-15T17:01:18.313Z,7.57
2018-03-15T17:03:45.753Z,6.47
2018-03-15T17:06:13.235Z,8.73
2018-03-15T17:08:40.674Z,7.60
2018-03-15T17:11:08.153Z,8.00
2018-03-15T17:13:35.605Z,11.20
2018-03-15T17:16:03.118Z,8.90
2018-03-15T17:18:30.577Z,7.00
2018-03-15T17:20:58.034Z,7.60
2018-03-15T17:23:25.698Z,6.73
2018-03-15T17:25:53.142Z,9.57
2018-03-15T17:28:20.586Z,8.33
2018-03-15T17:30:48.055Z,6.90
2018-03-15T17:33:15.510Z,7.33
2018-03-15T17:35:42.986Z,7.50
2018-03-15T17:38:10.432Z,6.97
2018-03-15T17:40:37.893Z,7.10
2018-03-15T17:43:05.353Z,7.10
2018-03-15T17:45:32.806Z,7.67
2018-03-15T17:48:00.497Z,6.50
2018-03-15T17:50:28.254Z,6.87
2018-03-15T17:52:55.706Z,6.90
2018-03-15T17:55:23.179Z,6.73
2018-03-15T17:57:50.622Z,6.27
2018-03-15T18:00:18.149Z,10.53
2018-03-15T18:02:45.590Z,12.57
2018-03-15T18:05:13.026Z,6.73
2018-03-15T18:07:40.494Z,6.87
2018-03-15T18:10:07.954Z,6.40
2018-03-15T18:12:35.396Z,6.90
2018-03-15T18:15:02.859Z,6.00
2018-03-15T18:17:30.334Z,6.80
2018-03-15T18:19:57.780Z,6.87
2018-03-15T18:22:25.404Z,12.40
2018-03-15T18:24:52.900Z,6.13
2018-03-15T18:27:20.354Z,5.90
2018-03-15T18:29:47.846Z,6.33
2018-03-15T18:32:15.286Z,5.93
2018-03-15T18:34:42.721Z,5.60
2018-03-15T18:37:10.610Z,6.20
2018-03-15T18:39:38.077Z,6.00
2018-03-15T18:42:05.504Z,7.60
2018-03-15T18:44:32.957Z,5.60
2018-03-15T18:47:00.401Z,6.87
2018-03-15T18:49:27.986Z,7.60
2018-03-15T18:51:55.421Z,5.87
2018-03-15T18:54:22.879Z,5.50
2018-03-15T18:56:50.407Z,6.00
2018-03-15T18:59:17.878Z,6.00
2018-03-15T19:01:45.354Z,6.53
2018-03-15T19:04:12.793Z,5.83
2018-03-15T19:06:40.226Z,5.63
2018-03-15T19:09:07.691Z,7.20
2018-03-15T19:11:35.131Z,6.30
2018-03-15T19:14:02.613Z,6.37
2018-03-15T19:16:30.053Z,7.07
2018-03-15T19:18:57.495Z,5.77
2018-03-15T19:21:24.957Z,6.37
2018-03-15T19:23:52.402Z,5.63
2018-03-15T19:26:20.032Z,5.87
2018-03-15T19:28:47.474Z,7.03
2018-03-15T19:31:15.884Z,6.80
2018-03-15T19:33:43.338Z,6.77
2018-03-15T19:36:10.777Z,7.30
2018-03-15T19:38:38.954Z,7.10
2018-03-15T19:41:06.403Z,6.17
2018-03-15T19:43:33.882Z,10.50
2018-03-15T19:46:01.364Z,7.87
2018-03-15T19:48:28.806Z,7.70
2018-03-15T19:50:56.540Z,7.67
2018-03-15T19:53:23.975Z,7.63
2018-03-15T19:55:51.409Z,7.63
2018-03-15T19:58:21.222Z,9.23
2018-03-15T20:00:49.640Z,9.10
2018-03-15T20:03:17.262Z,8.33
2018-03-15T20:05:44.697Z,9.07
2018-03-15T20:08:12.147Z,9.23
2018-03-15T20:10:39.715Z,9.27
2018-03-15T20:13:08.458Z,8.60
2018-03-15T20:15:41.686Z,10.07
2018-03-15T20:18:09.129Z,10.07
2018-03-15T20:20:36.572Z,10.63
2018-03-15T20:23:09.690Z,10.87
2018-03-15T20:25:37.151Z,16.40
2018-03-15T20:28:10.738Z,10.57
2018-03-15T20:30:38.905Z,9.60
2018-03-15T20:33:12.705Z,9.03
2018-03-15T20:35:40.160Z,9.23
2018-03-15T20:38:09.218Z,10.73
2018-03-15T20:40:42.201Z,10.63
2018-03-15T20:43:09.646Z,10.00
2018-03-15T20:45:42.838Z,12.93
2018-03-15T20:48:15.832Z,11.40
2018-03-15T20:50:43.618Z,11.57
2018-03-15T20:53:11.074Z,11.47
2018-03-15T20:55:38.544Z,10.60
2018-03-15T20:58:06.019Z,10.87
2018-03-15T21:00:33.458Z,11.47
2018-03-15T21:03:00.950Z,12.03
2018-03-15T21:05:28.393Z,10.40
2018-03-15T21:07:55.838Z,11.10
2018-03-15T21:10:23.327Z,10.13
2018-03-15T21:12:51.725Z,11.40
2018-03-15T21:15:19.453Z,11.50
2018-03-15T21:17:46.897Z,10.27
2018-03-15T21:20:14.346Z,11.97
2018-03-15T21:22:41.813Z,11.80
2018-03-15T21:25:09.255Z,10.83
2018-03-15T21:27:38.156Z,12.73
2018-03-15T21:30:05.602Z,18.23
2018-03-15T21:32:33.046Z,16.00
2018-03-15T21:35:00.517Z,15.50
2018-03-15T21:37:27.962Z,13.70
2018-03-15T21:39:55.446Z,13.07
2018-03-15T21:42:22.897Z,13.20
2018-03-15T21:44:50.357Z,12.43
2018-03-15T21:47:17.830Z,13.80
2018-03-15T21:49:45.273Z,16.17
2018-03-15T21:52:12.934Z,17.83
2018-03-15T21:54:40.430Z,14.80
2018-03-15T21:57:07.872Z,13.13
2018-03-15T21:59:35.343Z,16.80
2018-03-15T22:02:02.792Z,20.30
2018-03-15T22:04:30.366Z,11.97
2018-03-15T22:06:57.806Z,13.63
2018-03-15T22:09:25.259Z,12.80
2018-03-15T22:11:52.743Z,13.20
2018-03-15T22:14:20.221Z,11.77
2018-03-15T22:16:47.821Z,11.70
2018-03-15T22:19:15.262Z,19.67
2018-03-15T22:21:42.726Z,13.10
2018-03-15T22:24:10.188Z,15.77
2018-03-15T22:26:37.645Z,16.30
2018-03-15T22:29:05.120Z,12.60
2018-03-15T22:31:32.595Z,17.17
2018-03-15T22:34:00.054Z,15.13
2018-03-15T22:36:27.517Z,16.20
2018-03-15T22:38:54.970Z,17.73
2018-03-15T22:41:22.470Z,21.07
2018-03-15T22:43:49.909Z,15.57
2018-03-15T22:46:17.361Z,19.47
2018-03-15T22:48:44.827Z,15.13
2018-03-15T22:51:12.296Z,16.37
2018-03-15T22:53:39.822Z,19.93
2018-03-15T22:56:07.423Z,18.23
2018-03-15T22:58:34.865Z,23.70
2018-03-15T23:01:02.334Z,20.77
2018-03-15T23:03:29.801Z,20.53
2018-03-15T23:05:57.278Z,31.87
2018-03-15T23:08:24.741Z,29.23
2018-03-15T23:10:52.184Z,31.93
2018-03-15T23:13:19.649Z,25.93
2018-03-15T23:15:47.097Z,26.13
2018-03-15T23:18:14.754Z,25.40
2018-03-15T23:20:42.297Z,29.03
2018-03-15T23:23:09.746Z,28.00
2018-03-15T23:25:37.209Z,31.67
2018-03-15T23:28:04.669Z,28.70
2018-03-15T23:30:32.184Z,27.77
2018-03-15T23:32:59.645Z,26.43
2018-03-15T23:35:27.097Z,27.57
2018-03-15T23:37:54.570Z,33.87
2018-03-15T23:40:22.033Z,30.83
2018-03-15T23:42:49.505Z,29.80
2018-03-15T23:45:16.954Z,32.20
2018-03-15T23:47:44.398Z,29.20
2018-03-15T23:50:11.882Z,30.60
2018-03-15T23:52:39.341Z,33.97
2018-03-15T23:55:06.823Z,34.67
2018-03-15T23:57:34.268Z,29.30
